Time;durP1;ratioP1;P1;durP2;ratioP2;P2;SDS_P1;SDS_P2;PMS_P1;PMS_P2;Temp;Humidity;BMP_temperature;BMP_pressure;BME280_temperature;BME280_humidity;BME280_pressure;Samples;Min_cycle;Max_cycle;Signal;HPM_P1;HPM_P2
2022/06/10 04:46:35;;;;;;;3.42;3.13;;;;;;;13.63;62.41;101447.63;5050622;23;20271;31
2022/06/10 04:49:01;;;;;;;3.63;3.20;;;;;;;13.65;62.39;101445.81;4985675;28;20117;-23
2022/06/10 04:51:26;;;;;;;3.42;3.13;;;;;;;13.68;62.08;101453.75;4989411;28;20030;-23
2022/06/10 04:53:51;;;;;;;3.10;2.80;;;;;;;13.69;62.29;101453.72;4988072;28;20027;-23
2022/06/10 04:56:17;;;;;;;2.92;2.72;;;;;;;13.73;62.13;101459.88;4990715;28;20609;-23
2022/06/10 04:58:43;;;;;;;4.38;3.10;;;;;;;13.75;62.54;101460.75;4969314;28;20074;-23
2022/06/10 05:01:08;;;;;;;3.75;2.85;;;;;;;13.80;62.80;101465.97;4973058;28;20083;-23
2022/06/10 05:03:35;;;;;;;2.95;2.75;;;;;;;13.87;62.86;101461.53;4971123;28;20018;-23
2022/06/10 05:06:01;;;;;;;3.03;2.83;;;;;;;13.91;63.12;101468.53;4988873;28;20023;-23
2022/06/10 05:08:26;;;;;;;3.67;3.20;;;;;;;13.93;63.07;101462.31;4966761;28;20117;-23
2022/06/10 05:10:52;;;;;;;4.18;2.95;;;;;;;13.97;63.26;101464.03;4972184;28;20029;-23
2022/06/10 05:13:20;;;;;;;3.72;2.67;;;;;;;14.03;63.80;101470.16;4969797;28;20051;-23
2022/06/10 05:15:46;;;;;;;4.05;2.72;;;;;;;14.08;63.12;101471.00;4968254;28;20081;-23
2022/06/10 05:18:14;;;;;;;3.72;3.42;;;;;;;14.12;65.02;101475.38;4969143;28;20450;-23
2022/06/10 05:20:41;;;;;;;4.25;3.10;;;;;;;14.18;65.14;101474.44;4982427;28;20042;-23
2022/06/10 05:23:08;;;;;;;5.13;3.15;;;;;;;14.23;64.16;101484.09;4970016;28;20027;-23
2022/06/10 05:25:34;;;;;;;3.53;3.30;;;;;;;14.31;65.06;101485.78;4971973;28;20033;-23
2022/06/10 05:28:00;;;;;;;4.88;3.10;;;;;;;14.36;64.48;101494.56;4973439;28;20027;-23
2022/06/10 05:30:27;;;;;;;4.03;3.22;;;;;;;14.41;65.03;101491.88;4977619;28;20035;-23
2022/06/10 05:32:53;;;;;;;3.47;3.17;;;;;;;14.45;64.94;101494.47;4972949;28;20049;-23
2022/06/10 05:35:18;;;;;;;3.90;3.45;;;;;;;14.52;65.23;101505.88;4970628;28;20490;-23
2022/06/10 05:37:46;;;;;;;3.75;3.40;;;;;;;14.57;64.76;101504.03;4970238;28;20026;-23
2022/06/10 05:40:13;;;;;;;3.22;2.95;;;;;;;14.65;63.80;101503.97;4971384;28;20023;-23
2022/06/10 05:42:38;;;;;;;4.88;2.80;;;;;;;14.71;64.67;101501.19;4974517;28;20362;-23
2022/06/10 05:45:04;;;;;;;5.70;3.00;;;;;;;14.77;64.80;101508.25;4965734;28;20037;-23
2022/06/10 05:47:33;;;;;;;2.95;2.75;;;;;;;14.86;64.93;101502.81;4961104;28;20027;-23
2022/06/10 05:50:00;;;;;;;4.60;3.67;;;;;;;14.93;65.10;101500.94;4956722;28;20015;-23
2022/06/10 05:52:28;;;;;;;3.22;3.03;;;;;;;15.01;64.82;101501.72;4957051;28;20396;-23
2022/06/10 05:54:55;;;;;;;3.10;2.85;;;;;;;15.09;64.41;101508.69;4959135;28;20453;-23
2022/06/10 05:57:21;;;;;;;3.40;3.10;;;;;;;15.17;64.71;101512.13;4951223;28;20109;-23
2022/06/10 05:59:47;;;;;;;3.72;3.33;;;;;;;15.23;64.96;101509.38;4952534;28;20098;-23
2022/06/10 06:02:13;;;;;;;3.50;3.10;;;;;;;15.30;65.24;101501.31;4952677;28;20035;-23
2022/06/10 06:04:38;;;;;;;4.45;2.83;;;;;;;15.38;64.09;101504.72;4937671;28;20046;-23
2022/06/10 06:07:04;;;;;;;3.10;2.90;;;;;;;15.49;64.59;101502.78;4955804;28;20062;-23
2022/06/10 06:09:30;;;;;;;3.38;3.17;;;;;;;15.62;63.67;101515.84;4953180;28;20054;-23
2022/06/10 06:11:57;;;;;;;3.40;3.00;;;;;;;15.73;63.50;101507.69;4937510;28;20075;-23
2022/06/10 06:14:26;;;;;;;3.40;3.15;;;;;;;15.84;63.51;101508.38;4957820;28;20375;-23
2022/06/10 06:16:54;;;;;;;3.20;3.00;;;;;;;15.92;63.38;101510.91;4950676;28;20029;-23
2022/06/10 06:19:20;;;;;;;3.15;2.95;;;;;;;16.03;63.81;101511.63;4961584;28;20030;-23
2022/06/10 06:21:46;;;;;;;3.40;2.95;;;;;;;16.13;63.62;101509.66;4947384;28;20142;-23
2022/06/10 06:24:11;;;;;;;3.85;3.53;;;;;;;16.23;63.86;101510.34;4954766;28;20027;-23
2022/06/10 06:26:36;;;;;;;3.25;2.90;;;;;;;16.35;63.86;101513.69;4956634;28;20041;-23
2022/06/10 06:29:02;;;;;;;5.80;3.10;;;;;;;16.43;64.12;101514.41;4957762;28;20054;-23
2022/06/10 06:31:28;;;;;;;3.65;3.00;;;;;;;16.52;64.33;101508.91;4947633;28;20042;-23
2022/06/10 06:33:53;;;;;;;3.35;3.05;;;;;;;16.61;63.69;101513.13;4954318;28;20034;-23
2022/06/10 06:36:22;;;;;;;2.88;2.65;;;;;;;16.72;63.66;101512.94;4951859;28;20054;-23
2022/06/10 06:38:48;;;;;;;3.58;3.13;;;;;;;16.87;63.75;101516.19;4952279;28;20261;-23
2022/06/10 06:41:14;;;;;;;6.45;3.25;;;;;;;16.99;62.86;101526.56;4955302;28;20050;-23
2022/06/10 06:43:39;;;;;;;2.97;2.67;;;;;;;17.11;62.70;101520.06;4955660;28;20335;-23
2022/06/10 06:46:05;;;;;;;3.85;2.78;;;;;;;17.23;62.44;101523.38;4933902;28;20414;-23
2022/06/10 06:48:30;;;;;;;5.22;3.35;;;;;;;17.35;62.66;101516.88;4965917;28;20081;-23
2022/06/10 06:50:56;;;;;;;3.60;3.20;;;;;;;17.50;63.45;101523.66;4969750;28;20027;-23
2022/06/10 06:53:21;;;;;;;3.78;3.28;;;;;;;17.60;63.34;101519.81;4971790;28;20164;-23
2022/06/10 06:55:46;;;;;;;3.42;3.20;;;;;;;17.68;62.08;101514.31;4973564;28;20178;-23
2022/06/10 06:58:15;;;;;;;3.33;3.03;;;;;;;17.76;62.00;101512.31;4972196;28;20068;-23
2022/06/10 07:00:40;;;;;;;4.68;3.53;;;;;;;17.88;61.70;101515.56;4969648;28;20037;-23
2022/06/10 07:03:05;;;;;;;4.78;3.60;;;;;;;17.99;61.42;101518.81;4969428;28;20030;-23
2022/06/10 07:05:31;;;;;;;4.38;3.30;;;;;;;18.13;61.57;101526.50;4970894;28;20074;-23
2022/06/10 07:07:57;;;;;;;3.42;3.17;;;;;;;18.27;61.65;101525.25;4972115;28;20031;-23
2022/06/10 07:10:23;;;;;;;5.00;3.80;;;;;;;18.37;61.35;101532.06;4973441;28;20527;-23
2022/06/10 07:12:48;;;;;;;4.13;3.38;;;;;;;18.45;61.15;101526.50;4971601;28;20027;-23
2022/06/10 07:15:14;;;;;;;6.32;3.47;;;;;;;18.61;61.70;101520.72;4972846;28;20667;-23
2022/06/10 07:17:40;;;;;;;5.80;3.30;;;;;;;18.73;61.22;101528.38;4971637;28;20030;-23
2022/06/10 07:20:08;;;;;;;5.20;3.40;;;;;;;18.83;61.02;101529.84;4970535;28;20109;-23
2022/06/10 07:22:33;;;;;;;5.18;3.25;;;;;;;18.95;60.59;101525.06;4959550;28;20026;-23
2022/06/10 07:24:58;;;;;;;5.32;3.33;;;;;;;19.05;60.45;101521.19;4985904;28;20449;-23
2022/06/10 07:27:23;;;;;;;5.68;4.00;;;;;;;19.21;61.16;101520.72;4971280;28;20043;-23
2022/06/10 07:29:50;;;;;;;3.22;2.92;;;;;;;19.38;61.76;101525.53;4968962;28;20022;-23
2022/06/10 07:32:15;;;;;;;3.67;3.30;;;;;;;19.47;60.51;101522.53;4971077;28;20031;-23
2022/06/10 07:34:41;;;;;;;4.53;2.70;;;;;;;19.54;60.25;101517.84;4969350;28;20085;-23
2022/06/10 07:37:06;;;;;;;3.97;3.47;;;;;;;19.68;60.38;101521.88;4977628;28;20022;-23
2022/06/10 07:39:33;;;;;;;3.50;3.22;;;;;;;19.82;59.94;101516.91;4975336;28;20030;-23
2022/06/10 07:42:00;;;;;;;2.90;2.58;;;;;;;19.95;59.89;101514.69;4972524;28;20039;-23
2022/06/10 07:44:30;;;;;;;4.15;3.00;;;;;;;20.08;59.71;101516.94;4975430;28;20129;-23
2022/06/10 07:46:57;;;;;;;4.10;3.25;;;;;;;20.24;59.79;101528.00;4968225;28;20397;-23
2022/06/10 07:49:23;;;;;;;3.35;2.90;;;;;;;20.37;59.77;101520.34;4956850;28;20023;-23
2022/06/10 07:51:48;;;;;;;3.97;2.92;;;;;;;20.48;59.81;101519.97;4950747;28;20039;-23
2022/06/10 07:54:14;;;;;;;4.30;2.90;;;;;;;20.59;59.28;101517.75;4934871;28;20054;-23
2022/06/10 07:56:40;;;;;;;3.42;3.13;;;;;;;20.85;61.03;101518.56;4956867;28;20052;-23
2022/06/10 07:59:06;;;;;;;4.10;3.00;;;;;;;20.98;60.72;101528.84;4960820;28;20370;-23
2022/06/10 08:01:32;;;;;;;3.80;2.97;;;;;;;21.02;60.90;101519.72;4954575;28;20822;-23
2022/06/10 08:03:58;;;;;;;3.17;2.88;;;;;;;21.20;60.95;101528.00;4958583;28;20066;-23
2022/06/10 08:06:25;;;;;;;3.65;2.78;;;;;;;21.41;59.64;101519.03;4955733;28;20034;-23
2022/06/10 08:08:51;;;;;;;5.00;3.33;;;;;;;21.45;59.32;101517.13;4951767;28;20082;-23
2022/06/10 08:11:17;;;;;;;5.07;2.80;;;;;;;21.58;58.78;101527.31;4956576;28;20034;-23
2022/06/10 08:13:42;;;;;;;2.78;2.38;;;;;;;21.70;58.69;101516.06;4957256;28;20024;-23
2022/06/10 08:16:08;;;;;;;3.40;3.10;;;;;;;21.80;58.65;101519.25;4957891;28;20126;-23
2022/06/10 08:18:33;;;;;;;4.28;2.88;;;;;;;21.85;59.28;101514.56;4959699;28;20047;-24
2022/06/10 08:23:44;;;;;;;3.40;2.30;;;;;;;22.08;59.68;101507.31;4957442;28;20118;-23
2022/06/10 08:26:11;;;;;;;5.00;2.88;;;;;;;22.26;58.13;101518.16;4956152;28;20323;-23
2022/06/10 08:28:38;;;;;;;3.10;2.13;;;;;;;22.36;58.28;101508.75;4956479;28;20027;-23
2022/06/10 08:31:04;;;;;;;4.63;2.95;;;;;;;22.36;57.89;101506.06;4957189;28;20023;-23
2022/06/10 08:33:29;;;;;;;3.67;2.75;;;;;;;22.51;57.24;101512.53;4961975;28;20045;-23
2022/06/10 08:35:54;;;;;;;6.18;3.22;;;;;;;22.62;57.51;101509.38;4958688;28;20030;-23
2022/06/10 08:38:20;;;;;;;3.78;2.08;;;;;;;22.64;57.80;101507.47;4958209;28;20019;-23
2022/06/10 08:41:21;;;;;;;3.45;2.78;;;;;;;22.92;54.70;101510.69;4960368;28;20023;-22
2022/06/10 08:44:13;;;;;;;2.80;2.35;;;;;;;23.03;54.24;101508.34;4954124;28;20078;-22
2022/06/10 08:47:03;;;;;;;3.28;2.25;;;;;;;23.12;54.34;101515.09;4959906;28;20402;-22
2022/06/10 08:49:53;;;;;;;3.03;2.67;;;;;;;23.21;54.09;101511.09;4970014;28;20026;-22
2022/06/10 08:52:39;;;;;;;4.47;2.93;;;;;;;23.24;55.13;101510.06;4971537;28;20418;-22
2022/06/10 08:55:49;;;;;;;4.45;2.53;;;;;;;23.38;56.43;101507.59;4973262;28;20037;-22
2022/06/10 08:58:19;;;;;;;3.10;2.55;;;;;;;23.45;54.89;101509.00;4962291;28;20070;-22
2022/06/10 09:00:45;;;;;;;4.90;2.30;;;;;;;23.51;55.72;101504.28;4970885;28;20019;-22
2022/06/10 09:03:20;;;;;;;2.72;2.13;;;;;;;23.55;55.58;101503.16;4967250;28;20106;-22
2022/06/10 09:06:07;;;;;;;4.28;2.20;;;;;;;23.77;53.57;101507.44;4971142;28;20513;-23
2022/06/10 09:08:43;;;;;;;2.63;2.20;;;;;;;23.76;54.50;101508.38;4974156;28;20038;-23
2022/06/10 09:11:14;;;;;;;3.55;2.30;;;;;;;23.82;55.53;101502.69;4975572;28;20038;-22
2022/06/10 09:14:01;;;;;;;4.97;2.55;;;;;;;23.88;54.85;101510.44;4970395;28;20520;-23
2022/06/10 09:16:47;;;;;;;4.50;2.47;;;;;;;24.05;52.75;101495.22;4975130;28;20027;-22
2022/06/10 09:19:38;;;;;;;4.55;2.38;;;;;;;24.17;52.56;101504.50;4974060;28;20023;-23
2022/06/10 09:22:18;;;;;;;2.88;1.98;;;;;;;24.19;52.52;101491.78;4973429;28;20047;-23
2022/06/10 09:25:03;;;;;;;2.25;1.90;;;;;;;24.19;53.68;101487.28;4981838;28;20485;-23
2022/06/10 09:27:37;;;;;;;2.80;2.25;;;;;;;24.35;52.69;101494.53;4975010;28;20381;-23
2022/06/10 09:30:07;;;;;;;4.22;2.08;;;;;;;24.47;51.74;101496.56;4971925;28;20389;-23
2022/06/10 09:32:51;;;;;;;2.22;1.95;;;;;;;24.59;51.80;101483.34;4970652;28;20038;-23
2022/06/10 09:35:32;;;;;;;2.63;1.80;;;;;;;24.57;52.44;101490.63;4975763;28;20038;-23
2022/06/10 09:38:09;;;;;;;2.83;2.03;;;;;;;24.72;50.51;101486.22;4977208;28;20492;-23
2022/06/10 09:40:37;;;;;;;3.42;1.90;;;;;;;24.85;49.85;101489.09;4993386;28;20065;-23
2022/06/10 09:43:20;;;;;;;3.17;1.90;;;;;;;24.88;49.90;101488.97;4978791;28;20035;-23
2022/06/10 09:45:55;;;;;;;2.95;2.28;;;;;;;24.95;48.53;101494.88;4975132;28;20041;-23
2022/06/10 09:49:03;;;;;;;3.08;1.90;;;;;;;24.97;49.60;101492.94;4984437;28;20098;-23
2022/06/10 09:51:41;;;;;;;2.67;2.00;;;;;;;25.05;48.47;101501.50;4979092;28;20560;-23
2022/06/10 09:54:44;;;;;;;3.45;1.80;;;;;;;25.08;49.54;101487.78;4988738;28;20102;-23
2022/06/10 09:57:58;;;;;;;2.97;2.15;;;;;;;25.25;49.58;101485.97;4972294;28;20039;-23
2022/06/10 10:00:48;;;;;;;2.35;1.55;;;;;;;25.32;48.74;101486.47;4975815;28;20192;-23
2022/06/10 10:03:31;;;;;;;6.25;2.15;;;;;;;25.50;46.02;101479.97;4973863;28;20033;-23
2022/06/10 10:06:34;;;;;;;3.67;2.20;;;;;;;25.62;44.76;101485.63;4972607;28;20462;-23
2022/06/10 10:09:30;;;;;;;2.85;1.75;;;;;;;25.53;45.52;101478.03;4978136;28;20556;-23
2022/06/10 10:12:05;;;;;;;2.30;1.90;;;;;;;25.59;47.08;101483.09;4975142;28;20046;-23
2022/06/10 10:15:09;;;;;;;3.50;2.03;;;;;;;25.75;45.67;101478.50;4974494;28;20030;-23
2022/06/10 10:17:50;;;;;;;5.03;2.40;;;;;;;25.81;46.11;101481.81;4946670;28;20146;-23
2022/06/10 10:20:38;;;;;;;2.65;1.75;;;;;;;25.95;44.83;101473.72;4967517;28;20515;-23
2022/06/10 10:23:21;;;;;;;3.00;2.20;;;;;;;26.00;44.68;101474.28;4969921;28;20082;-23
2022/06/10 10:25:47;;;;;;;3.38;1.75;;;;;;;26.08;44.16;101472.94;4961402;28;20413;-23
2022/06/10 10:28:20;;;;;;;5.18;2.20;;;;;;;26.10;43.03;101476.41;4972352;28;20023;-23
2022/06/10 10:31:13;;;;;;;2.40;2.08;;;;;;;25.99;44.11;101464.47;4974254;28;20045;-23
2022/06/10 10:33:39;;;;;;;2.33;1.85;;;;;;;26.03;44.79;101461.53;4989492;28;20035;-23
2022/06/10 10:36:30;;;;;;;4.22;2.45;;;;;;;26.14;43.56;101461.72;4974019;28;20038;-23
2022/06/10 10:38:57;;;;;;;4.80;2.05;;;;;;;26.19;43.27;101459.63;4973246;28;20142;-23
2022/06/10 10:41:26;;;;;;;4.53;2.50;;;;;;;26.21;43.40;101456.84;4975696;28;20169;-23
2022/06/10 10:43:55;;;;;;;3.50;1.98;;;;;;;26.30;42.65;101450.00;4973788;28;20037;-23
2022/06/10 10:46:30;;;;;;;4.72;2.00;;;;;;;26.32;42.99;101453.47;4974631;28;20048;-23
2022/06/10 10:48:57;;;;;;;1.75;1.65;;;;;;;26.33;44.05;101449.78;4960733;28;20117;-23
2022/06/10 10:51:28;;;;;;;3.55;1.92;;;;;;;26.37;45.46;101446.78;4971432;28;20154;-23
2022/06/10 10:53:55;;;;;;;3.88;2.10;;;;;;;26.50;44.54;101446.88;4985657;28;20039;-23
2022/06/10 10:56:30;;;;;;;4.10;2.38;;;;;;;26.66;42.60;101445.88;4971786;28;20062;-24
2022/06/10 10:58:56;;;;;;;2.22;2.00;;;;;;;26.63;43.23;101451.47;4988605;28;20039;-23
2022/06/10 11:01:43;;;;;;;5.78;2.33;;;;;;;26.59;42.55;101455.34;4972963;28;20026;-23
2022/06/10 11:04:17;;;;;;;2.92;2.22;;;;;;;26.58;43.81;101450.91;4970070;28;20023;-23
2022/06/10 11:06:42;;;;;;;3.88;2.00;;;;;;;26.70;42.15;101447.41;4970679;28;20035;-23
2022/06/10 11:09:20;;;;;;;4.07;2.38;;;;;;;26.72;41.99;101442.78;4966606;28;20031;-23
2022/06/10 11:11:47;;;;;;;3.53;2.30;;;;;;;26.70;42.61;101442.00;4981700;28;20031;-23
2022/06/10 11:14:34;;;;;;;6.90;2.88;;;;;;;26.77;42.40;101443.31;4967923;28;20109;-23
2022/06/10 11:17:11;;;;;;;2.65;2.45;;;;;;;26.83;42.61;101443.88;4969109;28;20374;-23
2022/06/10 11:19:37;;;;;;;3.97;2.15;;;;;;;26.83;43.52;101441.16;4974170;28;20518;-23
2022/06/10 11:22:02;;;;;;;4.13;1.90;;;;;;;26.80;43.34;101441.41;4974175;28;20118;-23
2022/06/10 11:24:31;;;;;;;4.83;2.53;;;;;;;26.99;41.76;101431.13;4976244;28;20118;-23
2022/06/10 11:26:59;;;;;;;2.95;2.60;;;;;;;27.03;40.42;101435.34;4969588;28;20543;-23
2022/06/10 11:29:25;;;;;;;2.28;2.03;;;;;;;27.02;40.39;101435.44;4976158;28;20105;-24
2022/06/10 11:31:55;;;;;;;3.20;1.80;;;;;;;27.07;39.77;101432.44;4977443;28;20467;-23
2022/06/10 11:34:36;;;;;;;5.45;2.55;;;;;;;27.07;40.65;101433.28;4974758;28;20079;-23
2022/06/10 11:37:19;;;;;;;3.30;2.70;;;;;;;27.11;41.19;101431.25;4974166;28;20041;-23
2022/06/10 11:39:49;;;;;;;2.25;2.05;;;;;;;27.21;40.53;101429.63;4972238;28;20035;-24
2022/06/10 11:42:18;;;;;;;2.55;2.30;;;;;;;27.30;40.32;101432.72;4973090;28;20034;-24
2022/06/10 11:44:54;;;;;;;2.72;1.85;;;;;;;27.35;40.47;101433.25;4974505;28;20065;-23
2022/06/10 11:47:30;;;;;;;2.50;2.30;;;;;;;27.36;40.78;101421.44;4973335;28;20031;-24
2022/06/10 11:50:06;;;;;;;5.68;2.05;;;;;;;27.39;42.22;101416.69;4974627;28;20122;-23
2022/06/10 11:52:35;;;;;;;3.97;2.20;;;;;;;27.48;43.27;101404.31;4974514;28;20031;-23
2022/06/10 11:55:18;;;;;;;4.13;2.20;;;;;;;27.50;42.54;101401.50;4976999;28;20037;-23
2022/06/10 12:00:36;;;;;;;1.92;1.83;;;;;;;27.63;41.44;101402.44;4989409;28;20098;-23
2022/06/10 12:03:13;;;;;;;3.75;2.72;;;;;;;27.68;41.54;101410.25;4974023;28;20061;-24
2022/06/10 12:06:01;;;;;;;2.25;1.88;;;;;;;27.63;42.08;101397.00;4976450;28;20091;-23
2022/06/10 12:08:45;;;;;;;2.13;1.92;;;;;;;27.72;42.03;101400.91;4971849;28;20058;-23
2022/06/10 12:11:24;;;;;;;3.88;2.05;;;;;;;27.87;41.54;101403.53;4992312;28;20057;-24
2022/06/10 12:14:07;;;;;;;3.85;2.00;;;;;;;27.93;41.23;101400.34;4974515;28;20836;-23
2022/06/10 12:16:33;;;;;;;2.05;1.95;;;;;;;27.92;39.93;101402.22;4975473;28;20501;-23
2022/06/10 12:19:06;;;;;;;3.92;2.20;;;;;;;27.97;40.23;101399.16;4945555;28;20378;-22
2022/06/10 12:21:34;;;;;;;3.17;1.95;;;;;;;27.98;40.30;101406.31;4991576;28;20083;-24
2022/06/10 12:23:59;;;;;;;4.30;2.33;;;;;;;27.99;39.87;101402.63;4973200;28;20086;-24
2022/06/10 12:26:51;;;;;;;4.50;2.20;;;;;;;27.99;39.94;101399.03;4979391;28;20131;-23
2022/06/10 12:29:47;;;;;;;2.70;1.92;;;;;;;28.04;39.74;101392.31;4976879;28;20030;-23
2022/06/10 12:32:47;;;;;;;2.97;2.25;;;;;;;28.09;39.98;101388.41;4975311;28;20027;-23
2022/06/10 12:35:17;;;;;;;2.28;2.08;;;;;;;28.05;40.45;101379.63;4976098;28;20219;-23
2022/06/10 12:37:51;;;;;;;2.55;2.10;;;;;;;28.07;40.51;101387.66;4975581;28;20030;-24
2022/06/10 12:40:33;;;;;;;2.35;1.95;;;;;;;28.10;40.92;101382.88;4974637;28;20039;-23
2022/06/10 12:46:14;;;;;;;2.20;2.00;;;;;;;28.00;40.11;101382.66;4973659;28;20041;-22
2022/06/10 12:48:46;;;;;;;1.85;1.75;;;;;;;28.00;40.52;101384.50;4974798;28;20385;-23
2022/06/10 12:51:12;;;;;;;3.30;2.00;;;;;;;28.08;39.42;101379.41;4962017;28;20091;-23
2022/06/10 12:53:43;;;;;;;4.83;2.13;;;;;;;28.11;38.77;101383.75;4971794;28;20023;-23
2022/06/10 12:56:31;;;;;;;4.35;2.30;;;;;;;28.09;38.77;101391.97;4972298;28;20105;-23
2022/06/10 12:58:56;;;;;;;4.45;2.10;;;;;;;28.21;37.82;101384.78;4973100;28;20030;-23
2022/06/10 13:01:28;;;;;;;2.63;1.70;;;;;;;28.25;37.78;101383.59;4972449;28;20038;-24
2022/06/10 13:04:11;;;;;;;3.78;2.45;;;;;;;28.15;36.95;101380.69;4977816;28;20046;-23
2022/06/10 13:07:00;;;;;;;2.95;1.85;;;;;;;28.01;37.70;101372.69;4973336;28;20019;-23
2022/06/10 13:09:34;;;;;;;5.05;2.10;;;;;;;27.98;37.72;101367.50;4955595;28;20034;-23
2022/06/10 13:12:07;;;;;;;2.53;2.30;;;;;;;27.98;38.68;101373.81;4957856;28;20038;-24
2022/06/10 13:14:36;;;;;;;4.53;2.25;;;;;;;28.08;37.89;101378.53;4974403;28;20046;-23
2022/06/10 13:17:25;;;;;;;3.08;1.92;;;;;;;28.07;38.00;101372.22;4976795;28;20478;-23
2022/06/10 13:19:53;;;;;;;2.70;1.90;;;;;;;28.03;39.20;101371.59;4972419;28;20031;-23
2022/06/10 13:22:18;;;;;;;2.63;1.63;;;;;;;28.16;38.75;101373.41;4982605;28;20030;-23
2022/06/10 13:24:50;;;;;;;2.33;1.87;;;;;;;28.28;38.56;101375.25;4973746;28;20045;-23
2022/06/10 13:27:27;;;;;;;4.05;1.90;;;;;;;28.33;39.25;101371.31;4971384;28;20034;-23
2022/06/10 13:30:03;;;;;;;3.78;1.85;;;;;;;28.38;37.77;101369.16;4971566;28;20041;-23
2022/06/10 13:32:29;;;;;;;2.80;1.83;;;;;;;28.36;38.81;101363.84;4971739;28;20150;-23
2022/06/10 13:35:01;;;;;;;5.30;1.98;;;;;;;28.47;38.11;101367.63;4968768;28;20034;-24
2022/06/10 13:37:32;;;;;;;3.03;2.10;;;;;;;28.50;38.80;101361.94;4962219;28;20023;-23
2022/06/10 13:40:01;;;;;;;3.05;1.98;;;;;;;28.50;39.55;101367.34;4970214;28;20022;-23
2022/06/10 13:42:38;;;;;;;2.60;2.40;;;;;;;28.49;40.12;101366.50;4972207;28;20058;-23
2022/06/10 13:45:16;;;;;;;2.20;2.00;;;;;;;28.55;39.73;101366.03;4948794;28;20071;-23
2022/06/10 13:48:02;;;;;;;5.50;2.60;;;;;;;28.63;39.63;101368.19;4972423;28;20023;-23
2022/06/10 13:50:54;;;;;;;5.68;2.65;;;;;;;28.69;39.25;101359.59;4968385;28;20080;-24
2022/06/10 13:53:34;;;;;;;3.70;1.85;;;;;;;28.69;37.27;101356.88;4971889;28;20034;-23
2022/06/10 13:56:03;;;;;;;3.85;2.10;;;;;;;28.65;37.97;101360.81;4983402;28;20034;-23
2022/06/10 13:58:30;;;;;;;4.78;1.98;;;;;;;28.61;36.90;101363.84;4970572;28;20121;-23
2022/06/10 14:01:05;;;;;;;5.03;2.35;;;;;;;28.59;38.23;101369.41;4953135;28;20573;-23
2022/06/10 14:03:30;;;;;;;5.68;2.50;;;;;;;28.50;38.29;101360.09;4982368;28;20478;-23
2022/06/10 14:06:12;;;;;;;5.13;2.17;;;;;;;28.47;38.99;101348.63;4969029;28;20069;-23
2022/06/10 14:08:40;;;;;;;1.90;1.80;;;;;;;28.47;39.72;101346.75;4968904;28;20038;-23
2022/06/10 14:11:22;;;;;;;3.08;1.90;;;;;;;28.53;38.45;101356.28;4972460;28;20497;-24
2022/06/10 14:13:50;;;;;;;3.85;1.70;;;;;;;28.53;36.85;101357.16;4962562;28;20510;-24
2022/06/10 14:16:16;;;;;;;2.00;1.80;;;;;;;28.63;39.03;101349.19;4952959;28;20034;-24
2022/06/10 14:18:44;;;;;;;1.95;1.80;;;;;;;28.87;36.71;101356.44;4967423;28;20454;-24
2022/06/10 14:21:09;;;;;;;2.33;1.67;;;;;;;28.92;36.39;101351.56;4970848;28;20045;-23
2022/06/10 14:23:37;;;;;;;2.10;1.55;;;;;;;28.97;35.60;101358.50;4968686;28;20030;-24
2022/06/10 14:26:05;;;;;;;3.25;2.17;;;;;;;28.94;36.16;101365.00;4969227;28;20494;-23
2022/06/10 14:28:32;;;;;;;3.30;2.05;;;;;;;28.84;35.99;101356.66;4971784;28;20087;-24
2022/06/10 14:34:21;;;;;;;2.65;1.58;;;;;;;28.78;35.86;101355.28;4966141;28;20042;-23
2022/06/10 14:37:20;;;;;;;4.13;2.35;;;;;;;28.72;36.94;101355.78;4969389;28;20022;-23
2022/06/10 14:40:02;;;;;;;2.35;1.83;;;;;;;28.65;36.76;101349.06;4985632;28;20098;-23
2022/06/10 14:42:32;;;;;;;4.13;2.40;;;;;;;28.71;37.30;101336.88;4968555;28;20022;-24
2022/06/10 14:44:59;;;;;;;2.80;2.07;;;;;;;28.77;37.26;101337.28;4968458;28;20030;-24
2022/06/10 14:47:28;;;;;;;2.17;1.70;;;;;;;28.74;36.93;101340.22;4973831;28;20033;-23
2022/06/10 14:50:17;;;;;;;3.63;1.88;;;;;;;28.64;36.75;101337.34;4972878;28;20037;-23
2022/06/10 14:52:45;;;;;;;2.50;1.80;;;;;;;28.59;36.80;101334.13;4985852;28;20281;-23
2022/06/10 14:55:36;;;;;;;2.60;1.63;;;;;;;28.49;36.93;101344.81;4970531;28;20035;-22
2022/06/10 14:58:13;;;;;;;1.92;1.33;;;;;;;28.40;36.87;101337.34;4978515;28;20035;-23
2022/06/10 15:00:41;;;;;;;2.90;2.53;;;;;;;28.23;36.13;101338.56;4968282;28;20509;-23
2022/06/10 15:03:14;;;;;;;2.88;1.75;;;;;;;28.20;36.74;101336.13;4967144;28;20106;-23
2022/06/10 15:08:24;;;;;;;2.85;1.77;;;;;;;28.17;36.83;101339.88;4971739;28;20493;-24
2022/06/10 15:10:49;;;;;;;2.33;2.13;;;;;;;28.13;35.95;101332.97;4968901;28;20039;-24
2022/06/10 15:13:21;;;;;;;4.20;2.20;;;;;;;28.04;36.41;101334.53;4977146;28;20598;-24
2022/06/10 15:15:47;;;;;;;2.90;1.80;;;;;;;27.99;36.73;101337.56;4966559;28;20027;-23
2022/06/10 15:18:16;;;;;;;2.17;1.98;;;;;;;27.96;36.27;101334.19;4973953;28;20036;-23
2022/06/10 15:20:43;;;;;;;2.17;1.63;;;;;;;27.89;36.47;101336.50;4975933;28;20027;-23
2022/06/10 15:23:13;;;;;;;2.58;1.70;;;;;;;27.85;37.00;101333.16;4972708;28;20035;-23
2022/06/10 15:25:42;;;;;;;4.18;1.83;;;;;;;27.90;35.56;101332.81;4953279;28;20506;-23
2022/06/10 15:28:15;;;;;;;2.10;1.88;;;;;;;27.79;36.83;101328.19;4977796;28;20113;-23
2022/06/10 15:30:42;;;;;;;2.80;1.88;;;;;;;27.71;37.34;101334.13;4969217;28;20034;-23
2022/06/10 15:33:08;;;;;;;3.08;1.80;;;;;;;27.58;36.84;101322.44;4975840;28;20038;-22
2022/06/10 15:41:20;;;;;;;2.95;1.70;;;;;;;27.55;38.11;101328.94;4982805;28;20172;-23
2022/06/10 15:44:19;;;;;;;2.10;1.90;;;;;;;27.54;37.33;101324.47;4983255;28;20027;-22
2022/06/10 15:46:44;;;;;;;4.05;1.75;;;;;;;27.45;38.23;101333.28;4977629;28;20062;-23
2022/06/10 15:49:10;;;;;;;2.15;1.80;;;;;;;27.38;38.06;101328.28;4976172;28;20519;-22
2022/06/10 15:51:50;;;;;;;3.17;1.98;;;;;;;27.35;37.96;101327.63;4964198;28;20041;-23
2022/06/10 15:54:26;;;;;;;3.15;1.80;;;;;;;27.08;33.96;101323.19;4970500;28;20031;-23
2022/06/10 15:57:13;;;;;;;3.22;1.90;;;;;;;26.00;33.94;101320.25;4973358;28;20033;-23
2022/06/10 15:59:47;;;;;;;2.28;1.70;;;;;;;26.12;35.33;101324.00;4965109;28;20105;-24
2022/06/10 16:02:19;;;;;;;2.50;2.05;;;;;;;25.91;34.94;101320.84;4969343;28;20089;-23
2022/06/10 16:04:46;;;;;;;3.35;2.25;;;;;;;25.79;35.84;101316.22;4970676;28;20118;-23
2022/06/10 16:07:11;;;;;;;2.55;2.00;;;;;;;25.76;36.12;101311.91;4962727;28;20117;-23
2022/06/10 16:09:40;;;;;;;2.08;1.90;;;;;;;26.01;36.01;101319.28;4963530;28;20475;-23
2022/06/10 16:14:51;;;;;;;2.97;1.90;;;;;;;26.27;36.13;101321.25;4971515;28;20410;-23
2022/06/10 16:17:20;;;;;;;3.40;2.10;;;;;;;26.26;36.70;101315.00;4972735;28;20122;-24
2022/06/10 16:19:45;;;;;;;4.20;2.17;;;;;;;26.22;37.58;101324.28;4980014;28;20046;-22
2022/06/10 16:22:16;;;;;;;2.30;2.08;;;;;;;26.18;37.67;101320.03;4978114;28;20033;-23
2022/06/10 16:24:42;;;;;;;2.00;1.65;;;;;;;26.16;37.85;101318.38;4978028;28;20093;-22
2022/06/10 16:27:12;;;;;;;2.22;2.03;;;;;;;26.12;38.49;101320.44;4971276;28;20031;-23
2022/06/10 16:29:39;;;;;;;4.55;2.30;;;;;;;26.07;38.54;101320.72;4968373;28;20030;-23
2022/06/10 16:32:06;;;;;;;3.75;2.08;;;;;;;26.04;38.69;101325.47;4976272;28;20062;-22
2022/06/10 16:34:31;;;;;;;2.28;2.05;;;;;;;25.97;39.08;101320.47;4964102;28;20487;-23
2022/06/10 16:36:58;;;;;;;2.00;1.80;;;;;;;25.92;39.22;101324.41;4970422;28;20027;-22
2022/06/10 16:39:23;;;;;;;2.53;1.90;;;;;;;25.86;39.57;101313.06;4974921;28;20039;-23
2022/06/10 16:41:50;;;;;;;1.88;1.77;;;;;;;25.83;39.38;101315.94;4975878;28;20034;-24
2022/06/10 16:44:26;;;;;;;2.05;1.85;;;;;;;25.77;40.19;101319.03;4991645;28;20022;-24
2022/06/10 16:46:58;;;;;;;2.80;2.05;;;;;;;25.71;40.31;101309.47;4971525;28;20082;-23
2022/06/10 16:49:27;;;;;;;1.85;1.75;;;;;;;25.70;40.04;101309.56;4973211;28;20030;-23
2022/06/10 16:51:55;;;;;;;1.88;1.77;;;;;;;25.66;40.56;101303.50;5028566;23;20029;-24
2022/06/10 16:54:21;;;;;;;1.95;1.85;;;;;;;25.63;40.65;101306.41;5065876;28;20032;-24
2022/06/10 16:56:46;;;;;;;1.83;1.73;;;;;;;25.61;40.88;101308.34;5056061;28;20029;-24